Time;durP1;ratioP1;P1;durP2;ratioP2;P2;SDS_P1;SDS_P2;PMS_P1;PMS_P2;Temp;Humidity;BMP_temperature;BMP_pressure;BME280_temperature;BME280_humidity;BME280_pressure;Samples;Min_cycle;Max_cycle;Signal;HPM_P1;HPM_P2
2021/12/18 00:00:02;;;;;;;17.10;12.77;;;;;;;2.00;100.00;98324.34;5070894;28;20463;-72
2021/12/18 00:02:28;;;;;;;20.20;15.23;;;;;;;1.97;100.00;98322.16;5069654;28;20437;-72
2021/12/18 00:04:55;;;;;;;22.13;15.47;;;;;;;1.91;100.00;98317.81;5069452;28;20454;-72
2021/12/18 00:07:22;;;;;;;19.80;13.40;;;;;;;1.96;100.00;98331.00;5069406;28;20513;-72
2021/12/18 00:09:51;;;;;;;18.40;13.97;;;;;;;1.88;100.00;98322.69;5069583;28;20495;-72
2021/12/18 00:12:18;;;;;;;18.47;13.73;;;;;;;1.84;100.00;98331.97;5086097;28;20536;-72
2021/12/18 00:14:44;;;;;;;21.20;15.07;;;;;;;1.83;100.00;98319.94;5071026;28;20428;-72
2021/12/18 00:17:12;;;;;;;19.10;13.90;;;;;;;1.31;100.00;98242.16;5069596;28;20518;-72
2021/12/18 00:19:39;;;;;;;16.50;12.50;;;;;;;1.84;100.00;98324.13;5086412;28;20489;-72
2021/12/18 00:22:06;;;;;;;17.53;13.50;;;;;;;1.96;100.00;98331.00;5069449;28;20433;-73
2021/12/18 00:24:34;;;;;;;15.30;12.50;;;;;;;2.10;100.00;98333.44;5069391;28;20460;-73
2021/12/18 00:27:00;;;;;;;19.77;13.87;;;;;;;1.86;100.00;98312.47;5086098;28;21036;-72
2021/12/18 00:29:28;;;;;;;17.20;13.23;;;;;;;1.85;100.00;98318.69;5070815;28;20945;-72
2021/12/18 00:31:55;;;;;;;18.90;13.17;;;;;;;1.90;100.00;98328.50;5073019;28;20517;-72
2021/12/18 00:34:22;;;;;;;18.73;13.80;;;;;;;1.75;100.00;98305.41;5073070;28;20520;-72
2021/12/18 00:36:49;;;;;;;19.03;13.87;;;;;;;1.84;100.00;98309.28;5090521;28;20525;-72
2021/12/18 00:39:15;;;;;;;20.13;13.70;;;;;;;2.04;100.00;98329.91;5073131;28;20466;-72
2021/12/18 00:44:13;;;;;;;16.93;11.90;;;;;;;2.02;100.00;98342.38;5074862;28;20439;-72
2021/12/18 00:46:45;;;;;;;19.73;12.40;;;;;;;1.96;100.00;98346.66;5072833;28;20872;-72
2021/12/18 00:49:15;;;;;;;23.00;14.83;;;;;;;2.03;100.00;98357.00;5056352;28;20439;-72
2021/12/18 00:51:42;;;;;;;24.30;13.23;;;;;;;1.98;100.00;98354.25;5074287;28;21084;-72
2021/12/18 00:54:09;;;;;;;13.43;10.73;;;;;;;1.99;100.00;98356.63;5073153;28;20498;-72
2021/12/18 00:56:36;;;;;;;19.73;13.13;;;;;;;1.96;100.00;98354.47;5072997;28;20455;-72
2021/12/18 00:59:03;;;;;;;14.53;11.10;;;;;;;2.02;100.00;98371.88;5089591;28;20440;-72
2021/12/18 01:01:32;;;;;;;14.83;11.53;;;;;;;2.33;100.00;98357.78;5073326;28;20477;-72
2021/12/18 01:03:59;;;;;;;16.00;11.47;;;;;;;2.42;100.00;98360.88;5073157;28;20795;-72
2021/12/18 01:06:27;;;;;;;17.10;13.10;;;;;;;2.41;100.00;98359.31;5072810;28;20495;-72
2021/12/18 01:08:56;;;;;;;15.70;11.20;;;;;;;2.12;100.00;98350.44;5072893;28;20432;-72
2021/12/18 01:24:52;;;;;;;16.77;12.63;;;;;;;1.97;100.00;98343.03;5074167;28;20503;-72
2021/12/18 01:27:19;;;;;;;17.90;13.33;;;;;;;1.93;100.00;98341.09;5089717;28;20464;-72
2021/12/18 01:29:46;;;;;;;20.60;13.83;;;;;;;1.93;100.00;98348.91;5073108;28;20486;-72
2021/12/18 01:32:13;;;;;;;16.00;12.77;;;;;;;2.06;100.00;98348.72;5090076;28;20460;-72
2021/12/18 01:34:40;;;;;;;18.10;12.90;;;;;;;2.23;100.00;98343.69;5072721;28;20436;-73
2021/12/18 01:37:07;;;;;;;17.93;11.47;;;;;;;2.30;100.00;98373.09;5071873;28;20986;-72
2021/12/18 01:39:34;;;;;;;16.00;11.43;;;;;;;2.12;100.00;98360.88;5071801;28;20436;-72
2021/12/18 01:53:00;;;;;;;22.83;15.50;;;;;;;2.06;100.00;98349.53;5071576;28;20904;-72
2021/12/18 01:55:35;;;;;;;26.50;16.30;;;;;;;2.13;100.00;98356.47;5072856;28;20932;-72
2021/12/18 01:58:03;;;;;;;22.60;15.20;;;;;;;2.15;100.00;98351.84;5088268;28;20863;-72
2021/12/18 02:00:40;;;;;;;20.67;14.03;;;;;;;2.16;100.00;98345.59;5071435;28;20448;-72
2021/12/18 02:03:08;;;;;;;15.37;11.90;;;;;;;2.01;100.00;98325.13;5071537;28;20481;-72
2021/12/18 02:05:37;;;;;;;21.30;14.67;;;;;;;2.01;100.00;98322.53;5088179;28;20444;-72
2021/12/18 02:08:05;;;;;;;19.77;13.43;;;;;;;2.12;100.00;98339.22;5088146;28;20455;-72
2021/12/18 02:10:43;;;;;;;16.20;13.50;;;;;;;2.12;100.00;98349.66;5088045;28;20472;-72
2021/12/18 02:21:30;;;;;;;16.57;11.77;;;;;;;2.09;100.00;98298.72;5071207;28;20462;-72
2021/12/18 02:23:57;;;;;;;15.67;11.53;;;;;;;2.28;100.00;98302.88;5054399;28;20498;-72
2021/12/18 02:26:25;;;;;;;16.27;11.33;;;;;;;2.34;100.00;98315.00;5071105;28;20461;-72
2021/12/18 02:28:53;;;;;;;15.93;11.77;;;;;;;2.42;100.00;98334.78;5054180;28;20955;-72
2021/12/18 02:31:20;;;;;;;12.70;10.17;;;;;;;2.16;100.00;98307.25;5070771;28;20460;-72
2021/12/18 02:33:47;;;;;;;12.10;9.60;;;;;;;2.29;100.00;98319.31;5072108;28;20466;-72
2021/12/18 02:36:22;;;;;;;16.17;12.23;;;;;;;2.19;100.00;98319.84;5070615;28;20439;-72
2021/12/18 02:41:39;;;;;;;20.00;11.87;;;;;;;2.13;100.00;98318.13;5087473;28;20531;-72
2021/12/18 02:44:09;;;;;;;19.30;12.80;;;;;;;2.13;100.00;98320.72;5070537;28;20460;-72
2021/12/18 02:46:39;;;;;;;14.77;11.60;;;;;;;1.96;100.00;98299.69;5070343;28;21053;-72
2021/12/18 02:49:11;;;;;;;14.03;11.00;;;;;;;2.06;100.00;98307.00;5070467;28;20475;-72
2021/12/18 02:51:39;;;;;;;18.97;12.23;;;;;;;2.12;100.00;98310.50;5086939;28;20461;-72
2021/12/18 02:54:06;;;;;;;13.50;11.07;;;;;;;2.10;100.00;98312.56;5070242;28;20554;-72
2021/12/18 02:56:33;;;;;;;14.70;11.70;;;;;;;2.00;100.00;98302.66;5087111;28;20554;-73
2021/12/18 02:59:07;;;;;;;14.20;11.50;;;;;;;2.17;100.00;98315.88;5070250;28;20531;-72
2021/12/18 03:01:40;;;;;;;16.60;11.83;;;;;;;2.43;100.00;98314.69;5071675;28;20417;-72
2021/12/18 03:04:22;;;;;;;15.13;12.30;;;;;;;2.37;100.00;98314.56;5070126;28;20436;-72
2021/12/18 03:06:55;;;;;;;14.00;9.90;;;;;;;2.41;100.00;98291.44;5070303;28;20448;-72
2021/12/18 03:25:28;;;;;;;19.17;13.13;;;;;;;2.36;100.00;98325.22;5086831;28;20428;-72
2021/12/18 03:27:58;;;;;;;14.00;10.70;;;;;;;2.22;100.00;98311.56;5069730;28;20571;-73
2021/12/18 03:30:26;;;;;;;16.93;12.47;;;;;;;2.17;100.00;98301.00;5069839;28;20468;-73
2021/12/18 03:32:54;;;;;;;15.70;10.50;;;;;;;2.25;100.00;98308.50;5086552;28;20558;-73
2021/12/18 03:35:21;;;;;;;16.50;11.50;;;;;;;2.25;100.00;98323.38;5069930;28;20443;-72
2021/12/18 03:37:48;;;;;;;21.73;13.53;;;;;;;2.08;100.00;98304.94;5069781;28;20546;-73
2021/12/18 03:40:19;;;;;;;15.87;11.53;;;;;;;2.21;100.00;98319.63;5069722;28;20440;-73
2021/12/18 03:42:46;;;;;;;15.83;11.07;;;;;;;2.13;100.00;98319.94;5069815;28;20449;-73
2021/12/18 03:45:14;;;;;;;18.07;12.03;;;;;;;1.86;100.00;98281.16;5086513;28;20539;-73
2021/12/18 03:47:42;;;;;;;15.40;12.50;;;;;;;2.02;100.00;98314.47;5069952;28;20453;-72
2021/12/18 03:50:09;;;;;;;15.47;12.33;;;;;;;1.91;100.00;98298.78;5078488;28;20440;-72
2021/12/18 03:52:36;;;;;;;19.53;12.37;;;;;;;1.84;100.00;98291.03;5061532;28;20464;-72
2021/12/18 03:55:03;;;;;;;16.60;12.33;;;;;;;1.88;100.00;98307.06;5078035;28;20494;-72
2021/12/18 03:57:30;;;;;;;17.77;13.50;;;;;;;1.84;100.00;98303.28;5069883;28;20452;-72
2021/12/18 03:59:57;;;;;;;18.37;11.77;;;;;;;1.93;100.00;98310.56;5069558;28;20546;-72
2021/12/18 04:02:24;;;;;;;20.97;13.93;;;;;;;1.87;100.00;98321.91;5069563;28;20944;-73
2021/12/18 04:04:50;;;;;;;21.53;12.77;;;;;;;1.94;100.00;98321.81;5071721;28;20821;-72
2021/12/18 04:07:17;;;;;;;16.03;11.90;;;;;;;1.95;100.00;98323.38;5073684;28;20492;-72
2021/12/18 04:09:44;;;;;;;19.37;12.73;;;;;;;1.75;100.00;98293.16;5073451;28;20497;-72
2021/12/18 04:12:10;;;;;;;22.30;11.47;;;;;;;1.85;100.00;98307.47;5073618;28;20494;-72
2021/12/18 04:14:37;;;;;;;19.70;13.20;;;;;;;1.90;100.00;98313.63;5073436;28;21000;-72
2021/12/18 04:17:05;;;;;;;22.17;12.73;;;;;;;1.84;100.00;98298.84;5090039;28;20477;-72
2021/12/18 04:19:33;;;;;;;19.23;13.20;;;;;;;1.82;100.00;98316.53;5073363;28;20459;-72
2021/12/18 04:21:59;;;;;;;20.50;14.47;;;;;;;1.77;100.00;98301.56;5073471;28;20457;-72
2021/12/18 04:24:26;;;;;;;21.87;15.27;;;;;;;1.73;100.00;98297.78;5089948;28;20489;-72
2021/12/18 04:26:53;;;;;;;19.80;14.80;;;;;;;1.80;100.00;98307.34;5073129;28;20472;-72
2021/12/18 04:29:20;;;;;;;22.27;14.40;;;;;;;1.72;100.00;98292.78;5073802;28;20505;-72
2021/12/18 04:31:46;;;;;;;19.33;13.50;;;;;;;1.77;100.00;98311.19;5089977;28;20507;-72
2021/12/18 04:34:13;;;;;;;21.53;15.80;;;;;;;1.70;100.00;98306.03;5074491;28;20428;-72
2021/12/18 04:36:40;;;;;;;22.20;13.27;;;;;;;1.70;100.00;98308.66;5073083;28;20503;-72
2021/12/18 04:39:06;;;;;;;19.17;14.90;;;;;;;1.70;100.00;98311.25;5072926;28;20467;-72
2021/12/18 04:41:48;;;;;;;23.90;14.33;;;;;;;1.74;100.00;98322.06;5072799;28;20440;-72
2021/12/18 04:44:15;;;;;;;21.63;14.70;;;;;;;1.83;100.00;98325.16;5074290;28;20443;-73
2021/12/18 04:46:42;;;;;;;23.43;14.63;;;;;;;1.62;100.00;98298.53;5089665;28;20533;-72
2021/12/18 04:49:09;;;;;;;21.10;14.97;;;;;;;1.50;100.00;98282.06;5074388;28;20847;-72
2021/12/18 04:51:35;;;;;;;27.40;15.77;;;;;;;1.75;100.00;98316.63;5089650;28;20527;-72
2021/12/18 04:54:03;;;;;;;21.40;13.43;;;;;;;1.77;100.00;98313.81;5072643;28;20529;-72
2021/12/18 04:56:30;;;;;;;23.40;17.03;;;;;;;1.95;100.00;98324.19;5072640;28;20510;-72
2021/12/18 04:58:56;;;;;;;21.80;15.20;;;;;;;1.86;100.00;98277.75;5072527;28;20963;-72
2021/12/18 05:01:23;;;;;;;22.37;14.57;;;;;;;2.20;100.00;98318.03;5072608;28;20440;-72
2021/12/18 05:03:50;;;;;;;21.60;14.80;;;;;;;1.94;100.00;98293.13;5073986;28;20460;-73
2021/12/18 05:06:17;;;;;;;17.40;12.73;;;;;;;1.93;100.00;98317.59;5072575;28;20478;-72
2021/12/18 05:08:43;;;;;;;19.30;13.13;;;;;;;1.59;100.00;98269.50;5072425;28;20479;-72
2021/12/18 05:11:10;;;;;;;19.70;14.87;;;;;;;1.62;100.00;98282.09;5072414;28;20543;-72
2021/12/18 05:13:37;;;;;;;18.53;13.17;;;;;;;1.81;100.00;98306.31;5072492;28;20491;-72
2021/12/18 05:16:04;;;;;;;17.67;13.30;;;;;;;1.79;100.00;98314.38;5072285;28;20847;-72
2021/12/18 05:18:30;;;;;;;21.53;14.20;;;;;;;1.90;100.00;98318.84;5072286;28;20526;-72
2021/12/18 05:20:57;;;;;;;16.87;13.47;;;;;;;1.78;100.00;98313.56;5072260;28;20437;-72
2021/12/18 05:23:24;;;;;;;19.40;13.80;;;;;;;1.81;100.00;98314.94;5089456;28;20553;-72
2021/12/18 05:25:50;;;;;;;15.37;12.33;;;;;;;1.84;100.00;98322.31;5056783;28;20531;-72
2021/12/18 05:28:17;;;;;;;19.40;12.63;;;;;;;1.85;100.00;98323.13;5072422;28;20521;-73
2021/12/18 05:30:44;;;;;;;17.17;13.07;;;;;;;1.68;100.00;98296.84;5072663;28;20493;-72
2021/12/18 05:33:11;;;;;;;21.80;13.63;;;;;;;1.86;100.00;98322.09;5072427;28;20460;-72
2021/12/18 05:35:39;;;;;;;21.23;13.57;;;;;;;1.73;100.00;98305.59;5072568;28;20466;-72
2021/12/18 05:38:06;;;;;;;13.43;11.33;;;;;;;1.80;100.00;98320.38;5089286;28;20513;-72
2021/12/18 05:40:34;;;;;;;17.60;11.63;;;;;;;1.76;100.00;98326.03;5091271;28;21113;-73
2021/12/18 05:43:01;;;;;;;17.50;12.90;;;;;;;1.72;100.00;98318.84;5075557;28;21092;-72
2021/12/18 05:45:28;;;;;;;20.63;15.13;;;;;;;1.67;100.00;98316.13;5074089;28;20433;-72
2021/12/18 05:47:56;;;;;;;18.40;11.40;;;;;;;1.80;100.00;98330.81;5075743;28;20474;-72
2021/12/18 05:50:27;;;;;;;17.27;12.80;;;;;;;1.71;100.00;98328.50;5091485;28;20436;-72
2021/12/18 05:52:59;;;;;;;16.60;13.23;;;;;;;1.69;100.00;98314.09;5076195;28;20448;-72
2021/12/18 05:55:27;;;;;;;14.43;11.83;;;;;;;1.75;100.00;98342.72;5091358;28;20887;-72
2021/12/18 05:57:54;;;;;;;16.67;12.70;;;;;;;1.71;100.00;98338.13;5076180;28;20499;-72
2021/12/18 06:00:22;;;;;;;15.70;11.77;;;;;;;1.59;100.00;98314.59;5075803;28;20432;-72
2021/12/18 06:02:48;;;;;;;16.17;11.63;;;;;;;1.60;100.00;98329.22;5091725;28;20966;-72
2021/12/18 06:05:16;;;;;;;19.30;13.70;;;;;;;1.67;100.00;98343.00;5075380;28;20435;-72
2021/12/18 06:07:58;;;;;;;16.00;12.50;;;;;;;1.63;100.00;98328.03;5074917;28;20478;-72
2021/12/18 06:10:28;;;;;;;16.23;12.50;;;;;;;1.75;100.00;98347.13;5071515;28;20461;-73
2021/12/18 06:13:02;;;;;;;17.47;11.63;;;;;;;1.77;100.00;98347.69;5088164;28;20452;-73
2021/12/18 06:15:30;;;;;;;22.87;15.43;;;;;;;1.79;100.00;98340.44;5054990;28;20452;-73
2021/12/18 06:17:57;;;;;;;23.40;15.30;;;;;;;1.68;100.00;98341.97;5054516;28;20463;-73
2021/12/18 06:20:26;;;;;;;20.57;14.27;;;;;;;1.74;100.00;98342.94;5071176;28;20440;-73
2021/12/18 06:22:54;;;;;;;20.37;14.57;;;;;;;1.63;100.00;98318.38;5087809;28;20862;-73
2021/12/18 06:25:20;;;;;;;19.57;14.30;;;;;;;2.04;100.00;98337.72;5071011;28;20482;-73
2021/12/18 06:27:48;;;;;;;17.63;13.20;;;;;;;2.23;100.00;98339.25;5070148;28;20472;-72
2021/12/18 06:30:18;;;;;;;17.40;13.67;;;;;;;2.23;100.00;98333.25;5070948;28;20444;-73
2021/12/18 06:32:45;;;;;;;19.53;13.33;;;;;;;2.18;100.00;98333.13;5087657;28;20506;-73
2021/12/18 06:35:12;;;;;;;18.77;13.63;;;;;;;2.03;100.00;98339.53;5070719;28;20436;-73
2021/12/18 06:37:39;;;;;;;17.97;13.60;;;;;;;1.79;100.00;98314.38;5087287;28;20488;-72
2021/12/18 06:40:06;;;;;;;21.50;14.80;;;;;;;1.86;100.00;98342.97;5070568;28;20476;-73
2021/12/18 06:42:40;;;;;;;21.93;13.90;;;;;;;1.75;100.00;98336.69;5070523;28;20436;-73
2021/12/18 06:45:07;;;;;;;19.57;13.03;;;;;;;1.58;100.00;98331.25;5087798;28;20444;-73
2021/12/18 06:47:34;;;;;;;20.70;15.17;;;;;;;1.75;100.00;98354.94;5087395;28;20529;-72
2021/12/18 06:50:02;;;;;;;21.40;14.70;;;;;;;1.71;100.00;98354.56;5070493;28;20476;-73
2021/12/18 06:52:28;;;;;;;19.73;14.97;;;;;;;1.44;100.00;98316.78;5070381;28;20492;-72
2021/12/18 06:54:56;;;;;;;22.37;15.57;;;;;;;1.63;100.00;98354.88;5087339;28;20531;-72
2021/12/18 06:57:23;;;;;;;19.80;14.83;;;;;;;1.63;100.00;98352.28;5070249;28;20500;-73
2021/12/18 06:59:50;;;;;;;22.07;14.13;;;;;;;1.56;100.00;98345.53;5070265;28;20480;-72
2021/12/18 07:02:18;;;;;;;19.43;14.50;;;;;;;1.61;100.00;98349.09;5071656;28;20436;-72
2021/12/18 07:04:45;;;;;;;19.00;14.60;;;;;;;1.64;100.00;98353.88;5087085;28;20498;-73
2021/12/18 07:07:12;;;;;;;21.57;16.10;;;;;;;1.71;100.00;98359.78;5053583;28;20491;-73
2021/12/18 07:09:39;;;;;;;18.67;14.30;;;;;;;1.50;100.00;98326.34;5070266;28;20432;-73
2021/12/18 07:12:08;;;;;;;20.97;15.03;;;;;;;1.61;100.00;98337.88;5069888;28;20970;-73
2021/12/18 07:14:35;;;;;;;22.70;16.80;;;;;;;1.71;100.00;98349.34;5071462;28;21005;-73
2021/12/18 07:17:02;;;;;;;17.80;12.90;;;;;;;1.71;100.00;98359.78;5069923;28;20456;-73
2021/12/18 07:19:29;;;;;;;22.67;15.73;;;;;;;1.57;100.00;98345.31;5070061;28;20497;-73
2021/12/18 07:21:55;;;;;;;23.23;15.47;;;;;;;1.65;100.00;98352.06;5069941;28;20476;-73
2021/12/18 07:24:22;;;;;;;20.90;13.57;;;;;;;1.74;100.00;98335.91;5086684;28;20433;-73
2021/12/18 07:26:49;;;;;;;20.90;14.60;;;;;;;1.88;100.00;98354.00;5069760;28;20456;-72
2021/12/18 07:29:15;;;;;;;20.60;13.97;;;;;;;1.85;100.00;98365.63;5086635;28;20994;-73
2021/12/18 07:31:42;;;;;;;19.17;14.60;;;;;;;1.88;100.00;98354.78;5069789;28;20487;-73
2021/12/18 07:34:09;;;;;;;19.73;14.37;;;;;;;1.78;100.00;98352.69;5069728;28;20589;-73
2021/12/18 07:36:35;;;;;;;15.93;12.60;;;;;;;1.51;100.00;98303.69;5086379;28;20495;-73
2021/12/18 07:39:03;;;;;;;18.90;13.10;;;;;;;1.86;100.00;98358.63;5071174;28;20877;-73
2021/12/18 07:41:30;;;;;;;22.23;15.30;;;;;;;1.83;100.00;98351.22;5071236;28;20481;-73
2021/12/18 07:43:57;;;;;;;18.13;13.60;;;;;;;1.74;100.00;98343.72;5069693;28;20447;-73
2021/12/18 07:46:24;;;;;;;20.40;13.73;;;;;;;1.73;100.00;98343.91;5069550;28;20470;-74
2021/12/18 07:48:51;;;;;;;18.30;12.10;;;;;;;1.90;100.00;98341.53;5069726;28;20436;-73
2021/12/18 07:51:18;;;;;;;17.87;13.90;;;;;;;1.95;100.00;98339.03;5086514;28;20471;-73
2021/12/18 07:53:44;;;;;;;19.30;14.70;;;;;;;2.13;100.00;98333.78;5069750;28;20461;-73
2021/12/18 07:56:11;;;;;;;15.13;13.37;;;;;;;2.32;100.00;98340.53;5086314;28;20468;-73
2021/12/18 07:58:39;;;;;;;17.47;12.83;;;;;;;2.35;100.00;98352.34;5069576;28;20468;-73
2021/12/18 08:01:06;;;;;;;16.43;13.20;;;;;;;2.14;100.00;98332.78;5069729;28;20523;-73
2021/12/18 08:03:32;;;;;;;17.60;12.07;;;;;;;1.99;100.00;98329.75;5070987;28;20478;-73
2021/12/18 08:05:59;;;;;;;20.17;12.03;;;;;;;2.03;100.00;98334.31;5069552;28;20481;-73
2021/12/18 08:08:26;;;;;;;13.73;11.23;;;;;;;2.09;100.00;98327.41;5069618;28;20474;-73
2021/12/18 08:10:53;;;;;;;15.70;12.07;;;;;;;2.26;100.00;98341.41;5070855;28;20428;-73
2021/12/18 08:13:20;;;;;;;16.53;12.10;;;;;;;2.33;100.00;98333.50;5069426;28;20491;-73
2021/12/18 08:15:47;;;;;;;13.70;9.70;;;;;;;2.28;100.00;98349.84;5086269;28;21248;-73
2021/12/18 08:18:14;;;;;;;17.23;10.70;;;;;;;1.83;100.00;98292.03;5069498;28;20448;-73
2021/12/18 08:20:40;;;;;;;14.53;10.60;;;;;;;2.06;100.00;98336.50;5070800;28;21021;-73
2021/12/18 08:23:07;;;;;;;13.50;9.60;;;;;;;2.07;100.00;98342.50;5069417;28;20493;-73
2021/12/18 08:25:34;;;;;;;14.93;10.83;;;;;;;2.03;100.00;98339.53;5070735;28;20526;-73
2021/12/18 08:28:03;;;;;;;14.67;9.53;;;;;;;2.01;100.00;98336.38;5085952;28;20484;-73
2021/12/18 08:30:32;;;;;;;11.30;8.40;;;;;;;2.11;100.00;98342.84;5086127;28;20467;-73
2021/12/18 08:32:59;;;;;;;9.20;7.90;;;;;;;2.10;100.00;98342.06;5086013;28;21156;-73
2021/12/18 08:35:27;;;;;;;16.60;9.00;;;;;;;2.00;100.00;98328.72;5070588;28;20935;-73
2021/12/18 08:37:55;;;;;;;10.60;8.77;;;;;;;2.15;100.00;98336.97;5069250;28;20451;-73
2021/12/18 08:40:24;;;;;;;11.20;8.40;;;;;;;2.26;100.00;98349.25;5069269;28;20535;-73
2021/12/18 08:42:52;;;;;;;8.47;7.57;;;;;;;2.26;100.00;98349.25;5070605;28;20481;-73
2021/12/18 08:45:19;;;;;;;12.30;8.73;;;;;;;2.07;100.00;98332.06;5069407;28;20456;-72
2021/12/18 08:47:45;;;;;;;9.23;7.80;;;;;;;2.12;100.00;98341.81;5069009;28;20505;-73
2021/12/18 08:50:17;;;;;;;7.90;7.13;;;;;;;2.17;100.00;98355.03;5087050;28;20444;-72
2021/12/18 08:52:45;;;;;;;11.63;7.13;;;;;;;2.01;100.00;98331.16;5056048;28;20435;-73
2021/12/18 08:55:13;;;;;;;6.70;6.10;;;;;;;2.17;100.00;98342.78;5072628;28;20497;-73
2021/12/18 08:57:40;;;;;;;7.77;6.93;;;;;;;2.16;100.00;98348.22;5056198;28;20460;-73
2021/12/18 09:00:09;;;;;;;10.37;6.97;;;;;;;2.29;100.00;98354.03;5072543;28;20474;-73
2021/12/18 09:02:37;;;;;;;8.87;5.97;;;;;;;2.40;100.00;98354.28;5073859;28;20482;-73
2021/12/18 09:05:04;;;;;;;10.53;7.10;;;;;;;2.43;100.00;98366.91;5074039;28;20424;-73
2021/12/18 09:07:31;;;;;;;8.43;7.60;;;;;;;2.44;100.00;98352.84;5089479;28;20517;-72
2021/12/18 09:09:58;;;;;;;11.93;9.33;;;;;;;2.38;100.00;98357.13;5072930;28;20436;-73
2021/12/18 09:12:25;;;;;;;8.00;6.90;;;;;;;2.37;100.00;98351.09;5090009;28;20510;-72
2021/12/18 09:14:52;;;;;;;10.23;7.97;;;;;;;2.34;100.00;98361.19;5056112;28;21104;-72
2021/12/18 09:17:19;;;;;;;9.10;7.47;;;;;;;2.39;100.00;98371.75;5072856;28;20488;-73
2021/12/18 09:19:45;;;;;;;9.60;7.47;;;;;;;2.01;100.00;98352.00;5072719;28;20444;-73
2021/12/18 09:22:12;;;;;;;9.67;6.70;;;;;;;2.19;100.00;98374.66;5089440;28;20490;-73
2021/12/18 09:24:39;;;;;;;14.00;8.50;;;;;;;1.78;100.00;98333.66;5073102;28;20432;-73
2021/12/18 09:27:06;;;;;;;11.50;7.33;;;;;;;1.94;100.00;98364.34;5089208;28;20464;-73
2021/12/18 09:29:33;;;;;;;12.17;7.40;;;;;;;1.95;100.00;98376.34;5072400;28;20454;-73
2021/12/18 09:32:00;;;;;;;12.67;7.73;;;;;;;2.31;100.00;98369.47;5073811;28;20433;-73
2021/12/18 09:34:29;;;;;;;11.70;8.87;;;;;;;2.37;100.00;98365.97;5073327;28;20498;-72
2021/12/18 09:36:57;;;;;;;12.47;9.07;;;;;;;2.39;100.00;98376.97;5072786;28;20464;-74
2021/12/18 09:39:23;;;;;;;12.63;8.40;;;;;;;2.34;100.00;98354.16;5073431;28;20460;-73
2021/12/18 09:41:52;;;;;;;13.17;9.23;;;;;;;2.35;100.00;98362.78;5073393;28;20472;-74
2021/12/18 09:44:28;;;;;;;12.47;8.53;;;;;;;2.20;100.00;98324.06;5073299;28;20802;-74
2021/12/18 09:46:56;;;;;;;11.37;8.77;;;;;;;2.41;100.00;98348.06;5072193;28;20843;-73
2021/12/18 09:49:24;;;;;;;11.30;8.57;;;;;;;2.07;100.00;98345.09;5055807;28;20443;-74
2021/12/18 09:51:51;;;;;;;11.23;8.43;;;;;;;2.21;100.00;98354.34;5074839;28;20432;-73
2021/12/18 09:54:19;;;;;;;10.53;7.57;;;;;;;2.21;100.00;98356.94;5061424;28;20467;-73
2021/12/18 09:56:46;;;;;;;11.00;8.93;;;;;;;2.06;100.00;98340.91;5093380;28;20464;-73
2021/12/18 09:59:13;;;;;;;10.80;8.10;;;;;;;1.86;100.00;98333.31;5077781;28;20897;-71
2021/12/18 10:01:40;;;;;;;12.77;8.80;;;;;;;1.90;100.00;98357.19;5073061;28;20489;-73
2021/12/18 10:04:27;;;;;;;15.60;8.80;;;;;;;1.85;100.00;98342.16;5055761;28;20443;-73
2021/12/18 10:06:55;;;;;;;12.77;9.57;;;;;;;1.94;100.00;98347.88;5071547;28;20468;-72
2021/12/18 10:09:22;;;;;;;13.70;9.93;;;;;;;1.89;100.00;98339.94;5071581;28;20436;-74
2021/12/18 10:11:51;;;;;;;12.20;9.77;;;;;;;1.91;100.00;98343.91;5071294;28;20440;-73
2021/12/18 10:14:30;;;;;;;11.57;9.10;;;;;;;1.85;100.00;98338.75;5088062;28;20470;-73
2021/12/18 10:16:57;;;;;;;18.27;10.83;;;;;;;1.88;100.00;98335.75;5071172;28;20567;-73
2021/12/18 10:19:29;;;;;;;13.37;9.70;;;;;;;1.66;100.00;98330.97;5073013;28;20482;-72
2021/12/18 10:21:58;;;;;;;11.23;8.20;;;;;;;1.71;100.00;98322.50;5072825;28;20436;-73
2021/12/18 10:24:26;;;;;;;14.30;12.03;;;;;;;1.64;100.00;98319.97;5073136;28;20424;-72
2021/12/18 10:26:53;;;;;;;17.60;12.70;;;;;;;1.79;100.00;98322.19;5071285;28;20506;-72
2021/12/18 10:29:35;;;;;;;15.97;11.43;;;;;;;1.80;100.00;98329.00;5071526;28;20489;-72
2021/12/18 10:32:04;;;;;;;14.63;10.83;;;;;;;1.75;100.00;98323.66;5072714;28;20439;-72
2021/12/18 10:34:31;;;;;;;16.27;11.43;;;;;;;1.73;100.00;98304.81;5071300;28;20456;-79
2021/12/18 10:37:17;;;;;;;19.00;10.57;;;;;;;1.93;100.00;98320.22;5075296;28;20499;-78
2021/12/18 10:39:50;;;;;;;14.07;9.53;;;;;;;1.96;100.00;98322.38;5074870;28;20527;-78
2021/12/18 10:42:30;;;;;;;12.37;10.67;;;;;;;1.77;100.00;98298.16;5091343;28;20440;-79
2021/12/18 10:45:06;;;;;;;18.27;12.73;;;;;;;2.02;100.00;98318.91;5074860;28;20433;-79
2021/12/18 10:47:48;;;;;;;15.83;10.60;;;;;;;2.23;100.00;98310.56;5076260;28;20553;-79
2021/12/18 10:50:16;;;;;;;14.60;10.93;;;;;;;2.04;100.00;98296.78;5076825;28;20424;-78
2021/12/18 10:52:43;;;;;;;15.00;10.67;;;;;;;2.13;100.00;98307.69;5079033;28;20489;-78
2021/12/18 10:55:10;;;;;;;12.23;10.50;;;;;;;2.21;100.00;98290.91;5095972;28;20461;-78
2021/12/18 10:57:36;;;;;;;14.10;11.10;;;;;;;2.38;100.00;98299.69;5095614;28;20461;-78
2021/12/18 11:00:04;;;;;;;11.43;9.33;;;;;;;2.39;100.00;98301.28;5079575;28;20770;-78
2021/12/18 11:02:41;;;;;;;14.30;10.17;;;;;;;2.36;100.00;98299.91;5095147;28;20821;-78
2021/12/18 11:05:16;;;;;;;12.40;8.90;;;;;;;2.31;100.00;98291.97;5076707;28;20440;-77
2021/12/18 11:07:46;;;;;;;18.40;10.27;;;;;;;2.26;100.00;98297.06;5077556;28;20452;-76
2021/12/18 11:10:43;;;;;;;15.53;11.17;;;;;;;2.16;100.00;98296.03;5079210;28;20440;-76
2021/12/18 11:15:56;;;;;;;12.03;8.73;;;;;;;2.04;100.00;98238.59;5080591;28;20469;-77
2021/12/18 11:18:23;;;;;;;11.10;8.73;;;;;;;1.99;100.00;98243.66;5071823;28;20444;-76
2021/12/18 11:20:52;;;;;;;14.00;9.10;;;;;;;2.21;100.00;98272.66;5072440;28;20438;-76
2021/12/18 11:23:37;;;;;;;12.83;9.47;;;;;;;1.98;100.00;98239.47;5078675;28;20436;-76
2021/12/18 11:26:07;;;;;;;13.10;11.43;;;;;;;2.09;100.00;98259.59;5079732;28;20443;-76
2021/12/18 11:28:41;;;;;;;10.70;9.47;;;;;;;1.87;100.00;98230.63;5088525;28;20447;-76
2021/12/18 11:31:09;;;;;;;13.10;10.33;;;;;;;2.09;100.00;98262.19;5087531;28;20472;-77
2021/12/18 11:33:37;;;;;;;12.07;8.80;;;;;;;1.96;100.00;98236.28;5086980;28;20572;-77
2021/12/18 11:36:07;;;;;;;14.70;9.37;;;;;;;2.23;100.00;98249.75;5089560;28;20437;-77
2021/12/18 11:38:35;;;;;;;13.80;8.80;;;;;;;2.12;100.00;98230.44;5078771;28;20490;-76
2021/12/18 11:41:03;;;;;;;11.57;7.43;;;;;;;1.99;100.00;98207.16;5095043;28;20801;-77
2021/12/18 11:43:35;;;;;;;8.63;6.90;;;;;;;2.19;100.00;98244.19;5063417;28;20524;-77
2021/12/18 11:46:37;;;;;;;12.40;8.43;;;;;;;2.24;100.00;98239.06;5081768;28;20522;-77
2021/12/18 11:49:26;;;;;;;7.93;6.50;;;;;;;2.18;100.00;98236.59;5077768;28;20431;-77
2021/12/18 11:52:01;;;;;;;9.30;6.60;;;;;;;2.31;100.00;98234.56;5030026;28;20477;-77
2021/12/18 11:54:45;;;;;;;9.83;7.50;;;;;;;2.05;100.00;98188.81;5031795;28;21085;-77
2021/12/18 11:57:38;;;;;;;10.67;8.27;;;;;;;2.06;100.00;98226.13;5038393;28;20485;-78
2021/12/18 12:00:10;;;;;;;9.20;6.97;;;;;;;1.76;100.00;98195.66;5038194;28;20480;-77
2021/12/18 12:02:47;;;;;;;13.73;7.50;;;;;;;1.97;100.00;98209.19;5034655;28;21221;-77
2021/12/18 12:05:16;;;;;;;11.70;7.57;;;;;;;1.94;100.00;98207.84;4999903;28;20434;-77
2021/12/18 12:07:45;;;;;;;10.23;6.70;;;;;;;1.88;100.00;98179.25;5039765;28;20466;-77
2021/12/18 12:10:20;;;;;;;8.90;7.30;;;;;;;2.10;100.00;98209.00;5023817;28;20554;-77
2021/12/18 12:12:52;;;;;;;10.40;8.00;;;;;;;1.97;100.00;98202.16;5040873;28;20438;-77
2021/12/18 12:15:25;;;;;;;13.57;8.67;;;;;;;2.13;100.00;98198.09;5024601;28;20493;-77
2021/12/18 12:18:01;;;;;;;9.87;8.10;;;;;;;2.16;100.00;98199.47;5039298;28;20477;-78
2021/12/18 12:20:38;;;;;;;9.50;7.20;;;;;;;2.37;100.00;98202.31;5039184;28;20449;-77
2021/12/18 12:23:11;;;;;;;10.80;7.63;;;;;;;2.41;100.00;98196.66;5038743;28;21020;-77